North Zulch, Texas
Current Conditions -  °F | °C
As of 6:55 AM on Saturday 01 Nov 2014 (Local Time) from KCFD Reporting Station
Clear Clear  
Wind Chill: 41°   Ceiling: Unl
Heat Index: 41°   Visibility: 10mi
Dew Point: 38°   Wind: 3mph
Humidity: 86%   Direction: 40°NE
Pressure: 30.39"   Gusts: NA
Location:  30.92°N, 96.11°W
Report Text: KCFD 011155Z AUTO 04003KT 10SM CLR 05/03 A3039 RMK AO2 T00520031 10092 20052
Loading
Personal Weather Stations






























Interactive Weather Map
Tropical Storm Tracking
New forecast layout! Learn more

10-Day Weather Forecast

Advertisements
Track Severe Weather on mobile